ADDS METAR Data INFO
IDs: Format: Raw Decoded Include TAF

Data at: 0937 UTC 11 Dec 2017

KHUM 110915Z AUTO 00000KT 1/4SM -SN OVC001 01/01 A3033 RMK AO2 T00070007
KHUM 110855Z AUTO 00000KT 1/2SM -SN BKN001 02/02 A3033 RMK AO2 T00150015
KHUM 110835Z AUTO 00000KT 1/4SM -SN BKN002 01/01 A3033 RMK AO2 T00100010
KHUM 110815Z AUTO 00000KT 7SM CLR 02/02 A3033 RMK AO2 T00180017
KHUM 110755Z AUTO 00000KT 1/4SM -SN VV002 02/02 A3033 RMK AO2 T00200020
KHUM 110735Z AUTO 00000KT 1/4SM -SN VV002 02/02 A3033 RMK AO2 T00150015
KHUM 110715Z AUTO 00000KT 1/2SM -SN VV005 02/02 A3033 RMK AO2 T00190018
KHUM 110655Z AUTO 00000KT 7SM SCT002 01/01 A3033 RMK AO2 T00130011
KHUM 110635Z AUTO 00000KT 1/4SM -SN BKN002 01/01 A3034 RMK AO2 T00140013
KHUM 110615Z AUTO 00000KT 1/2SM -SN VV005 03/03 A3035 RMK AO2 T00280028
KHUM 110555Z AUTO 00000KT 3/4SM UP VV005 03/03 A3035 RMK AO2 VIS 1/2V2 T00300029 10099 20021 401651011
KHUM 110535Z AUTO 25003KT 3SM BR CLR 03/03 A3035 RMK AO2 T00310030
KHUM 110515Z AUTO 00000KT 7SM CLR 04/04 A3035 RMK AO2 T00380037
KHUM 110455Z AUTO 00000KT 1 1/4SM UP VV007 02/02 A3036 RMK AO2 T00230021
KHUM 110435Z AUTO 26003KT 7SM CLR 05/04 A3036 RMK AO2 T00540042
KHUM 110415Z AUTO 26003KT 7SM CLR 05/04 A3036 RMK AO2 T00500040
KHUM 110355Z AUTO 26003KT 10SM CLR 06/04 A3037 RMK AO2 T00570042
KHUM 110335Z AUTO 26004KT 7SM CLR 06/04 A3037 RMK AO2 T00600042
KHUM 110315Z AUTO 26003KT 10SM CLR 06/04 A3038 RMK AO2 T00580040
KHUM 110255Z AUTO 25004KT 7SM CLR 06/04 A3037 RMK AO2 T00600038
KHUM 110235Z AUTO 25003KT 7SM CLR 06/04 A3037 RMK AO2 T00600035
KHUM 110215Z AUTO 24003KT 7SM CLR 06/04 A3037 RMK AO2 T00600035
KHUM 110155Z AUTO 25003KT 10SM CLR 07/04 A3036 RMK AO2 T00650035
KHUM 110135Z AUTO 24003KT 7SM CLR 07/04 A3036 RMK AO2 T00670035
KHUM 110115Z AUTO 25004KT 7SM CLR 07/03 A3036 RMK AO2 T00730034
KHUM 110055Z AUTO 25005KT 10SM CLR 08/03 A3036 RMK AO2 T00800025
KHUM 110047Z 25005KT 7SM SKC 08/02 A3035 RMK LAST
KHUM 110035Z AUTO 24004KT 7SM CLR 09/01 A3035 RMK AO2 T00850011
KHUM 110015Z AUTO 24004KT 7SM CLR 09/01 A3035 RMK AO2 T00900005
KHUM 102347Z 25003KT 7SM SKC 11/00 A3034
KHUM 102247Z 25005KT 7SM SKC 13/-01 A3034
KHUM 102151Z 25005KT 7SM SKC 16/-01 A3033
KHUM 102052Z 24006KT 7SM SKC 16/-01 A3033
KHUM 101950Z 25010KT 7SM SKC 16/-01 A3034
KHUM 101850Z 25010KT 7SM SKC 16/-02 A3035
KHUM 101755Z 26010KT 7SM SKC 16/00 A3037
KHUM 101655Z 22004KT 7SM SKC 14/01 A3041
KHUM 101555Z 32004KT 7SM SKC 11/03 A3043
KHUM 101455Z 32003KT 7SM SKC 08/04 A3042
KHUM 101355Z 00000KT 7SM SKC 01/01 A3038
KHUM 101255Z 00000KT 7SM SKC M01/M01 A3037
KHUM 101147Z 00000KT 5SM BR SKC M01/M01 A3036
KHUM 101135Z AUTO 00000KT 2SM BR CLR M01/M01 A3036 RMK AO2 T10061006
KHUM 101115Z AUTO 00000KT 2 1/2SM BR CLR 00/00 A3035 RMK AO2 T10051005
KHUM 101055Z AUTO 00000KT 2 1/2SM BR CLR 00/00 A3035 RMK AO2 T00000000
KHUM 101035Z AUTO 00000KT 1/2SM -SN VV005 00/00 A3034 RMK AO2 T10011001
KHUM 101015Z AUTO 00000KT 2 1/2SM BR CLR 00/00 A3034 RMK AO2 T00000000
KHUM 100955Z AUTO 00000KT 3SM BR CLR 00/00 A3034 RMK AO2 T00000000
KHUM 100935Z AUTO 00000KT 1 1/2SM BR VV007 00/00 A3034 RMK AO2 T00000000
KHUM 100915Z AUTO 00000KT 1SM BR VV007 00/00 A3034 RMK AO2 T10011001
KHUM 100855Z AUTO 00000KT 4SM BR CLR 00/00 A3034 RMK AO2 T00030002
KHUM 100835Z AUTO 00000KT 7SM CLR 00/00 A3034 RMK AO2 T00000000
KHUM 100815Z AUTO 00000KT 7SM CLR 00/00 A3033 RMK AO2 T00020001
KHUM 100755Z AUTO 00000KT 5SM BR CLR 01/00 A3034 RMK AO2 T00050003
KHUM 100735Z AUTO 00000KT 7SM CLR 01/00 A3033 RMK AO2 T00050004
KHUM 100715Z AUTO 00000KT 7SM CLR 00/00 A3034 RMK AO2 T00010000
KHUM 100655Z AUTO 00000KT 10SM CLR 01/00 A3034 RMK AO2 T00060001
KHUM 100635Z AUTO 00000KT 7SM CLR 01/00 A3033 RMK AO2 T00050000
KHUM 100615Z AUTO 00000KT 7SM CLR 00/00 A3033 RMK AO2 T00020000
KHUM 100555Z AUTO 00000KT 7SM CLR 01/01 A3034 RMK AO2 T00090009 10068 20002 401121014
KHUM 100535Z AUTO 00000KT 7SM CLR 01/01 A3034 RMK AO2 T00090006
KHUM 100515Z AUTO 00000KT 7SM CLR 01/01 A3034 RMK AO2 T00130006
KHUM 100455Z AUTO 00000KT 10SM CLR 01/01 A3034 RMK AO2 T00130005
KHUM 100435Z AUTO 00000KT 7SM CLR 01/01 A3034 RMK AO2 T00130010
KHUM 100420Z AUTO 00000KT 7SM CLR 01/01 A3034 RMK AO2 T00090006
KHUM 100355Z AUTO 00000KT 7SM CLR 01/01 A3032 RMK AO2 T00120006
KHUM 100335Z AUTO 00000KT 7SM CLR 01/00 A3031 RMK AO2 T00100004
KHUM 100315Z AUTO 00000KT 7SM CLR 02/01 A3030 RMK AO2 T00170009
KHUM 100255Z AUTO 00000KT 7SM CLR 03/01 A3030 RMK AO2 T00250008
KHUM 100235Z AUTO 00000KT 7SM CLR 02/01 A3029 RMK AO2 T00160005
KHUM 100215Z AUTO 00000KT 7SM CLR 03/01 A3028 RMK AO2 T00270014
KHUM 100155Z AUTO 00000KT 7SM CLR 03/01 A3027 RMK AO2 T00340009
KHUM 100135Z AUTO 24003KT 7SM CLR 04/01 A3027 RMK AO2 T00440010
KHUM 100115Z AUTO 25004KT 10SM CLR 05/01 A3026 RMK AO2 T00480009
KHUM 100055Z AUTO 26004KT 10SM CLR 05/01 A3025 RMK AO2 T00530008
KHUM 100047Z 27003KT 7SM SKC 06/01 A3023 RMK LAST
KHUM 100035Z AUTO 25004KT 10SM CLR 06/01 A3025 RMK AO2 T00570006
KHUM 100015Z AUTO 25004KT 7SM CLR 06/00 A3025 RMK AO2 T00630002
KHUM 092347Z 27003KT 7SM SKC 07/00 A3020
KHUM 092150Z 27005KT 7SM SKC 11/M03 A3019